Latest Weather Observations for Willis Island

IDQ60801

Issued at 6:32 pm EST Sunday 19 November 2017 (issued every 30 minutes, with the page automatically refreshed every 10 minutes)

About weather observations | Map of weather stations | Latest weather observations for QLD | Other Formats
Station Details ID: 200283 Name: WILLIS ISLAND Lat: -16.29 Lon: 149.97 Height: 9.29 m
Data from the previous 72 hours. | See also: Recent months at Willis Island
Date/Time
EST
Temp
°C
App
Temp
°C
Dew
Point
°C
Rel
Hum
%
Delta-T
°C
Wind Press
QNH
hPa
Press
MSL
hPa
Rain since
9am
mm
Dir  Spd
km/h
Gust
km/h
Spd
kts
Gust
kts
19/06:30pm 26.1 24.7 20.5 71 3.7 SE 28 33 15 18 1010.6 1010.5 0.0
19/06:00pm 26.2 25.1 20.2 69 3.9 SE 26 32 14 17 1010.5 1010.4 0.0
19/05:30pm 26.8 25.8 20.4 68 4.2 SE 26 32 14 17 1010.2 1010.1 0.0
19/05:00pm 27.1 26.4 20.2 66 4.5 SE 24 30 13 16 1009.9 1009.8 0.0
19/04:30pm 27.9 27.2 19.6 60 5.4 SE 22 28 12 15 1009.8 1009.7 0.0
19/04:00pm 27.9 27.5 20.1 62 5.1 SE 22 26 12 14 1009.7 1009.6 0.0
19/03:30pm 28.3 27.9 20.1 61 5.4 SE 22 28 12 15 1009.8 1009.7 0.0
19/03:00pm 28.5 27.7 20.1 60 5.5 SE 24 28 13 15 1009.7 1009.6 0.0
19/02:30pm 29.0 28.4 20.4 59 5.7 SE 24 30 13 16 1009.8 1009.7 0.0
19/02:00pm 29.4 28.9 20.8 60 5.7 ESE 24 28 13 15 1010.0 1009.9 0.0
19/01:30pm 29.2 28.9 20.3 58 5.9 E 22 26 12 14 1010.1 1010.0 0.0
19/01:00pm 29.1 28.2 20.6 60 5.6 ESE 26 30 14 16 1010.4 1010.3 0.0
19/12:30pm 29.2 28.6 20.4 59 5.8 ESE 24 28 13 15 1010.6 1010.5 0.0
19/12:00pm 29.3 28.3 20.4 58 5.9 E 26 30 14 16 1010.9 1010.8 0.0
19/11:30am 29.3 28.5 20.9 60 5.6 E 26 30 14 16 1011.1 1011.0 0.0
19/11:00am 28.6 27.6 20.4 61 5.4 E 26 32 14 17 1011.5 1011.4 0.0
19/10:30am 29.2 28.6 21.3 62 5.3 ESE 26 30 14 16 1011.7 1011.6 0.0
19/10:00am 28.9 28.1 20.8 61 5.4 ESE 26 28 14 15 1012.0 1011.9 0.0
19/09:30am 28.2 26.6 20.1 61 5.3 E 28 32 15 17 1011.9 1011.8 0.0
19/09:00am 28.0 27.0 20.4 63 5.0 E 26 32 14 17 1011.9 1011.8 0.0
19/08:30am 27.8 26.3 20.3 63 4.9 E 28 32 15 17 1011.7 1011.6 0.0
19/08:00am 27.5 25.9 20.0 63 4.9 E 28 33 15 18 1011.4 1011.3 0.0
19/07:30am 27.0 25.1 20.1 66 4.5 ESE 30 35 16 19 1011.3 1011.2 0.0
19/07:00am 26.9 24.8 21.0 70 3.9 ESE 33 39 18 21 1011.0 1010.9 0.0
19/06:30am 26.5 24.5 21.1 72 3.6 E 33 39 18 21 1010.7 1010.6 0.0
19/06:00am 25.9 23.8 20.6 72 3.5 ESE 32 37 17 20 1010.2 1010.1 0.0
19/05:30am 25.8 24.0 21.1 75 3.1 ESE 32 37 17 20 1010.0 1009.9 0.0
19/05:00am 25.7 23.6 21.0 75 3.1 ESE 33 37 18 20 1009.8 1009.7 0.0
19/04:30am 25.7 23.6 20.5 73 3.4 ESE 32 37 17 20 1009.7 1009.6 0.0
19/04:00am 25.8 23.4 21.1 75 3.1 ESE 35 41 19 22 1009.4 1009.3 0.0
19/03:30am 25.7 23.1 20.7 74 3.3 ESE 35 43 19 23 1009.1 1009.0 0.0
19/03:00am 25.8 23.5 21.3 76 3.0 ESE 35 43 19 23 1008.8 1008.7 0.0
19/02:30am 25.9 23.7 21.5 76 2.9 ESE 35 43 19 23 1009.0 1008.9 0.0
19/02:00am 25.9 24.0 21.4 76 3.0 ESE 33 37 18 20 1009.1 1009.0 0.0
19/01:30am 25.8 23.7 21.6 77 2.8 ESE 35 39 19 21 1009.2 1009.1 0.0
19/01:00am 26.0 24.2 21.6 76 2.9 ESE 33 39 18 21 1009.4 1009.3 0.0
19/12:30am 26.0 24.2 21.6 76 2.9 ESE 33 39 18 21 1009.7 1009.6 0.0
19/12:00am 25.9 24.0 21.4 76 3.0 ESE 33 39 18 21 1010.2 1010.1 0.0
 
Date/Time
EST
Temp
°C
App
Temp
°C
Dew
Point
°C
Rel
Hum
%
Delta-T
°C
Wind Press
QNH
hPa
Press
MSL
hPa
Rain since
9am
mm
Dir  Spd
km/h
Gust
km/h
Spd
kts
Gust
kts
18/11:30pm 26.2 25.2 21.9 77 2.9 ESE 30 35 16 19 1010.5 1010.4 0.0
18/11:00pm 26.0 24.2 21.2 75 3.2 ESE 32 35 17 19 1010.8 1010.7 0.0
18/10:30pm 26.2 25.0 21.5 75 3.1 ESE 30 33 16 18 1011.0 1010.9 0.0
18/10:00pm 26.1 24.5 21.6 76 3.0 ESE 32 37 17 20 1010.9 1010.8 0.0
18/09:30pm 26.1 24.8 21.4 75 3.1 ESE 30 35 16 19 1010.7 1010.6 0.0
18/09:00pm 26.1 24.0 20.9 73 3.4 ESE 33 35 18 19 1010.5 1010.4 0.0
18/08:30pm 26.1 24.7 21.1 74 3.3 ESE 30 35 16 19 1010.4 1010.3 0.0
18/08:00pm 26.1 25.1 21.3 75 3.2 SE 28 33 15 18 1010.2 1010.1 0.0
18/07:30pm 26.1 24.8 20.6 71 3.6 SE 28 33 15 18 1009.7 1009.6 0.0
18/07:00pm 26.2 24.3 20.2 69 3.9 SE 30 35 16 19 1009.7 1009.6 0.0
18/06:30pm 26.3 24.5 20.3 69 3.9 SE 30 33 16 18 1009.9 1009.8 0.0
18/06:00pm 26.6 25.6 21.2 72 3.6 SE 28 32 15 17 1009.8 1009.7 0.0
18/05:30pm 26.8 24.7 20.6 69 4.1 SE 32 35 17 19 1009.7 1009.6 0.0
18/05:00pm 27.3 25.7 20.8 67 4.3 SE 30 35 16 19 1009.4 1009.3 0.0
18/04:30pm 27.7 26.8 20.6 65 4.7 SE 26 32 14 17 1009.3 1009.2 0.0
18/04:00pm 27.9 26.3 20.1 62 5.1 SE 28 32 15 17 1009.2 1009.1 0.0
18/03:30pm 28.2 26.9 19.8 60 5.5 ESE 26 32 14 17 1009.2 1009.1 0.0
18/03:00pm 28.7 27.4 19.8 58 5.8 ESE 26 32 14 17 1009.4 1009.3 0.0
18/02:30pm 28.9 28.2 20.2 59 5.7 ESE 24 30 13 16 1009.7 1009.6 0.0
18/02:00pm 29.3 28.3 20.4 58 5.9 ESE 26 32 14 17 1010.0 1009.9 0.0
18/01:30pm 29.2 28.3 20.6 59 5.7 ESE 26 30 14 16 1010.1 1010.0 0.0
18/01:00pm 29.2 28.3 19.9 57 6.1 ESE 24 32 13 17 1010.4 1010.3 0.0
18/12:30pm 28.9 28.2 20.2 59 5.7 ESE 24 30 13 16 1010.7 1010.6 0.0
18/12:00pm 29.0 27.8 20.0 58 5.9 ESE 26 30 14 16 1011.1 1011.0 0.0
18/11:30am 29.3 28.0 19.8 56 6.2 ESE 26 30 14 16 1011.4 1011.3 0.0
18/11:00am 29.2 27.5 19.7 56 6.2 ESE 28 32 15 17 1011.7 1011.6 0.0
18/10:30am 28.7 27.0 19.8 58 5.8 ESE 28 33 15 18 1011.9 1011.8 0.0
18/10:00am 29.0 27.6 20.5 60 5.6 ESE 28 33 15 18 1012.0 1011.9 0.0
18/09:30am 28.2 25.8 19.1 57 5.9 E 30 33 16 18 1011.8 1011.7 0.0
18/09:00am 28.1 25.8 20.2 62 5.2 ESE 32 37 17 20 1011.5 1011.4 0.0
18/08:30am 28.1 25.9 20.3 62 5.1 ESE 32 37 17 20 1011.5 1011.4 0.0
18/08:00am 27.6 24.9 19.6 61 5.2 ESE 33 37 18 20 1011.3 1011.2 0.0
18/07:30am 27.2 24.8 20.3 66 4.5 ESE 33 37 18 20 1011.0 1010.9 0.0
18/07:00am 27.0 24.7 20.1 66 4.5 ESE 32 37 17 20 1010.7 1010.6 0.0
18/06:30am 26.5 24.1 19.9 67 4.3 ESE 32 35 17 19 1010.4 1010.3 0.0
18/06:00am 26.1 23.5 19.8 68 4.1 ESE 33 37 18 20 1010.1 1010.0 0.0
18/05:30am 26.0 23.6 19.2 66 4.4 ESE 30 35 16 19 1009.8 1009.7 0.0
18/05:00am 25.8 23.5 19.3 67 4.2 ESE 30 35 16 19 1009.7 1009.6 0.0
18/04:30am 25.8 22.7 19.6 68 4.0 ESE 35 39 19 21 1009.3 1009.2 0.0
18/04:00am 25.8 22.7 19.6 68 4.0 ESE 35 39 19 21 1009.3 1009.2 0.0
18/03:30am 26.0 23.1 20.0 69 3.9 ESE 35 41 19 22 1009.0 1008.9 0.0
18/03:00am 25.9 23.7 20.7 73 3.4 E 33 39 18 21 1008.7 1008.6 0.0
18/02:30am 25.8 22.6 20.3 71 3.6 E 37 43 20 23 1008.9 1008.8 0.0
18/02:00am 25.6 22.7 20.9 75 3.1 E 37 43 20 23 1009.3 1009.2 0.0
18/01:30am 25.6 23.6 21.2 76 2.9 E 33 39 18 21 1009.5 1009.4 0.0
18/01:00am 25.7 24.2 22.0 80 2.5 E 33 39 18 21 1009.8 1009.7 0.0
18/12:30am 26.0 23.7 21.3 75 3.1 E 35 41 19 22 1010.0 1009.9 0.0
18/12:00am 26.3 24.6 21.3 74 3.3 E 32 37 17 20 1010.7 1010.6 0.0
 
Date/Time
EST
Temp
°C
App
Temp
°C
Dew
Point
°C
Rel
Hum
%
Delta-T
°C
Wind Press
QNH
hPa
Press
MSL
hPa
Rain since
9am
mm
Dir  Spd
km/h
Gust
km/h
Spd
kts
Gust
kts
17/11:30pm 26.4 24.7 21.4 74 3.3 E 32 39 17 21 1011.0 1010.9 0.0
17/11:00pm 26.0 24.3 21.3 75 3.1 E 32 39 17 21 1011.2 1011.1 0.0
17/10:30pm 25.7 23.4 21.3 76 2.9 E 35 43 19 23 1011.6 1011.5 0.0
17/10:00pm 26.3 24.0 21.2 73 3.4 E 35 41 19 22 1011.4 1011.3 0.0
17/09:30pm 26.3 23.9 20.3 69 3.9 E 33 37 18 20 1011.3 1011.2 0.0
17/09:00pm 26.2 23.6 20.6 71 3.7 ESE 35 41 19 22 1011.3 1011.2 0.0
17/08:30pm 26.2 23.1 20.4 70 3.8 ESE 37 43 20 23 1011.2 1011.1 0.0
17/08:00pm 26.3 23.1 20.2 69 4.0 ESE 37 43 20 23 1011.0 1010.9 0.0
17/07:30pm 26.2 23.0 20.2 69 3.9 ESE 37 41 20 22 1010.8 1010.7 0.0
17/07:00pm 26.2 23.0 20.2 69 3.9 ESE 37 43 20 23 1010.5 1010.4 0.0
17/06:30pm 26.1 23.3 20.3 70 3.8 ESE 35 39 19 21 1010.3 1010.2 0.0
17/06:00pm 26.3 23.8 20.2 69 4.0 ESE 33 39 18 21 1010.2 1010.1 0.0
17/05:30pm 26.6 23.8 20.3 68 4.1 ESE 35 41 19 22 1010.1 1010.0 0.0
17/05:00pm 26.9 24.2 20.5 68 4.2 SE 35 41 19 22 1010.1 1010.0 0.0
17/04:30pm 27.3 25.1 20.8 67 4.3 SE 33 39 18 21 1010.1 1010.0 0.0
17/04:00pm 27.4 25.3 21.6 70 3.9 ESE 35 41 19 22 1009.9 1009.8 0.0
17/03:30pm 28.4 26.7 21.4 66 4.7 ESE 32 35 17 19 1009.6 1009.5 0.0
17/03:00pm 28.3 26.1 20.4 62 5.2 SE 32 35 17 19 1010.0 1009.9 0.0
17/02:30pm 28.5 26.4 20.5 62 5.3 ESE 32 37 17 20 1010.0 1009.9 0.0
17/02:00pm 28.5 26.4 20.5 62 5.3 ESE 32 37 17 20 1010.1 1010.0 0.0
17/01:30pm 28.7 26.7 20.7 62 5.3 ESE 32 35 17 19 1010.4 1010.3 0.0
17/01:00pm 28.8 26.7 21.0 62 5.2 ESE 33 35 18 19 1010.7 1010.6 0.0
17/12:30pm 29.4 27.7 21.7 63 5.2 ESE 33 39 18 21 1011.2 1011.1 0.0
17/12:00pm 29.3 27.5 21.2 61 5.4 ESE 32 43 17 23 1011.5 1011.4 0.0
17/11:30am 29.0 26.8 21.5 64 5.0 ESE 35 39 19 21 1011.6 1011.5 0.0
17/11:00am 28.8 26.3 21.6 65 4.8 ESE 37 41 20 22 1011.7 1011.6 0.0
17/10:30am 28.8 26.5 21.3 64 5.0 ESE 35 41 19 22 1012.0 1011.9 0.0
17/10:00am 28.2 25.4 21.0 65 4.8 E 37 43 20 23 1012.1 1012.0 0.0
17/09:30am 28.4 26.0 21.9 68 4.4 ESE 37 43 20 23 1012.0 1011.9 0.0
17/09:00am 27.7 25.2 21.7 70 4.0 ESE 37 43 20 23 1012.0 1011.9 1.0
17/08:30am 27.7 25.1 21.4 68 4.2 ESE 37 44 20 24 1011.8 1011.7 1.0
17/08:00am 27.4 24.8 21.4 70 4.0 ESE 37 43 20 23 1011.7 1011.6 1.0
17/07:30am 27.3 24.5 21.0 68 4.2 ESE 37 43 20 23 1011.5 1011.4 1.0
17/07:00am 26.6 22.9 20.8 70 3.8 ESE 41 46 22 25 1011.6 1011.5 1.0
17/06:30am 26.4 23.5 21.6 75 3.2 ESE 39 46 21 25 1011.4 1011.3 1.0
17/06:00am 26.1 23.7 21.9 77 2.8 ESE 37 43 20 23 1011.2 1011.1 1.0
17/05:30am 25.8 23.0 21.8 78 2.7 ESE 39 46 21 25 1010.9 1010.8 1.0
17/05:00am 26.0 23.6 21.8 77 2.8 ESE 37 44 20 24 1010.6 1010.5 1.0
17/04:30am 26.0 23.8 22.1 79 2.6 ESE 37 43 20 23 1010.4 1010.3 1.0
17/04:00am 26.1 23.6 21.6 76 3.0 ESE 37 43 20 23 1010.1 1010.0 1.0
17/03:30am 26.1 23.5 21.4 75 3.1 ESE 37 43 20 23 1009.8 1009.7 1.0
17/03:00am 25.9 23.1 21.1 75 3.2 ESE 37 43 20 23 1009.7 1009.6 1.0
17/02:30am 26.0 23.1 21.5 76 3.0 ESE 39 44 21 24 1009.8 1009.7 1.0
17/02:00am 25.9 22.6 20.9 74 3.3 ESE 39 46 21 25 1010.0 1009.9 1.0
17/01:30am 26.0 22.6 21.3 75 3.1 ESE 41 46 22 25 1010.2 1010.1 1.0
17/01:00am 26.0 23.2 21.8 77 2.8 ESE 39 46 21 25 1010.3 1010.2 1.0
17/12:30am 25.8 22.8 21.4 76 2.9 ESE 39 46 21 25 1010.7 1010.6 1.0
17/12:00am 25.7 22.3 21.3 76 2.9 ESE 41 46 22 25 1011.0 1010.9 1.0
 
Date/Time
EST
Temp
°C
App
Temp
°C
Dew
Point
°C
Rel
Hum
%
Delta-T
°C
Wind Press
QNH
hPa
Press
MSL
hPa
Rain since
9am
mm
Dir  Spd
km/h
Gust
km/h
Spd
kts
Gust
kts
16/11:30pm 25.7 23.2 22.3 81 2.3 ESE 39 46 21 25 1011.0 1010.9 1.0
16/11:00pm 25.6 23.5 22.3 82 2.2 SE 37 46 20 25 1011.2 1011.1 1.0
16/10:30pm 25.7 23.2 22.4 82 2.2 SE 39 50 21 27 1011.7 1011.6 0.8
16/10:00pm 25.6 22.3 21.5 78 2.7 ESE 41 46 22 25 1011.8 1011.7 0.8
16/09:30pm 26.2 23.6 22.2 78 2.7 ESE 39 46 21 25 1011.7 1011.6 0.8
16/09:00pm 25.9 23.0 21.5 76 2.9 ESE 39 44 21 24 1011.5 1011.4 0.8
16/08:30pm 25.8 22.9 21.6 77 2.8 ESE 39 46 21 25 1011.5 1011.4 0.8
16/08:00pm 25.9 23.2 21.9 78 2.7 SE 39 43 21 23 1011.4 1011.3 0.8
16/07:30pm 26.1 23.7 21.9 77 2.8 ESE 37 44 20 24 1011.1 1011.0 0.8
16/07:00pm 26.0 23.8 22.1 79 2.6 SE 37 43 20 23 1010.9 1010.8 0.8

Other Formats:

Comma delimited format used in spreadsheet applications
http://www.bom.gov.au/fwo/IDQ60801/IDQ60801.94299.axf

JavaScript Object Notation format (JSON) in row-major order
http://www.bom.gov.au/fwo/IDQ60801/IDQ60801.94299.json